sensor_id;sensor_type;location;lat;lon;timestamp;temperature;humidity
41928;DHT22;27616;51.420;6.788;2022-12-07T00:01:21;5.00;99.90
41928;DHT22;27616;51.420;6.788;2022-12-07T00:03:49;5.00;99.90
41928;DHT22;27616;51.420;6.788;2022-12-07T00:06:16;5.00;99.90
41928;DHT22;27616;51.420;6.788;2022-12-07T00:08:42;5.00;99.90
41928;DHT22;27616;51.420;6.788;2022-12-07T00:11:11;5.00;99.90
41928;DHT22;27616;51.420;6.788;2022-12-07T00:13:37;5.00;99.90
41928;DHT22;27616;51.420;6.788;2022-12-07T00:16:12;5.00;99.90
41928;DHT22;27616;51.420;6.788;2022-12-07T00:18:38;5.00;99.90
41928;DHT22;27616;51.420;6.788;2022-12-07T00:21:14;5.00;99.90
41928;DHT22;27616;51.420;6.788;2022-12-07T00:23:41;5.00;99.90
41928;DHT22;27616;51.420;6.788;2022-12-07T00:26:11;5.00;99.90
41928;DHT22;27616;51.420;6.788;2022-12-07T00:28:37;5.00;99.90
41928;DHT22;27616;51.420;6.788;2022-12-07T00:31:08;5.10;99.90
41928;DHT22;27616;51.420;6.788;2022-12-07T00:33:35;5.10;99.90
41928;DHT22;27616;51.420;6.788;2022-12-07T00:36:03;5.10;99.90
41928;DHT22;27616;51.420;6.788;2022-12-07T00:38:31;5.00;99.90
41928;DHT22;27616;51.420;6.788;2022-12-07T00:40:59;5.00;99.90
41928;DHT22;27616;51.420;6.788;2022-12-07T00:43:26;5.00;99.90
41928;DHT22;27616;51.420;6.788;2022-12-07T00:45:52;5.10;99.90
41928;DHT22;27616;51.420;6.788;2022-12-07T00:48:18;5.10;99.90
41928;DHT22;27616;51.420;6.788;2022-12-07T00:50:44;5.10;99.90
41928;DHT22;27616;51.420;6.788;2022-12-07T00:53:10;5.10;99.90
41928;DHT22;27616;51.420;6.788;2022-12-07T00:55:35;5.10;99.90
41928;DHT22;27616;51.420;6.788;2022-12-07T00:58:02;5.10;99.90
41928;DHT22;27616;51.420;6.788;2022-12-07T01:00:27;5.10;99.90
41928;DHT22;27616;51.420;6.788;2022-12-07T01:02:53;5.10;99.90
41928;DHT22;27616;51.420;6.788;2022-12-07T01:05:19;5.00;99.90
41928;DHT22;27616;51.420;6.788;2022-12-07T01:07:44;5.10;99.90
41928;DHT22;27616;51.420;6.788;2022-12-07T01:10:12;5.00;99.90
41928;DHT22;27616;51.420;6.788;2022-12-07T01:12:38;5.00;99.90
41928;DHT22;27616;51.420;6.788;2022-12-07T01:22:39;4.90;99.90
41928;DHT22;27616;51.420;6.788;2022-12-07T01:25:06;4.90;99.90
41928;DHT22;27616;51.420;6.788;2022-12-07T01:27:33;4.90;99.90
41928;DHT22;27616;51.420;6.788;2022-12-07T01:29:59;4.90;99.90
41928;DHT22;27616;51.420;6.788;2022-12-07T01:32:25;4.90;99.90
41928;DHT22;27616;51.420;6.788;2022-12-07T01:34:50;4.90;99.90
41928;DHT22;27616;51.420;6.788;2022-12-07T01:37:16;4.90;99.90
41928;DHT22;27616;51.420;6.788;2022-12-07T01:39:42;4.80;99.90
41928;DHT22;27616;51.420;6.788;2022-12-07T01:42:11;4.80;99.90
41928;DHT22;27616;51.420;6.788;2022-12-07T01:47:21;4.80;99.90
41928;DHT22;27616;51.420;6.788;2022-12-07T01:49:48;4.70;99.90
41928;DHT22;27616;51.420;6.788;2022-12-07T01:52:30;4.70;99.90
41928;DHT22;27616;51.420;6.788;2022-12-07T01:55:00;4.70;99.90
41928;DHT22;27616;51.420;6.788;2022-12-07T01:57:27;4.80;99.90
41928;DHT22;27616;51.420;6.788;2022-12-07T01:59:53;4.80;99.90
41928;DHT22;27616;51.420;6.788;2022-12-07T02:02:28;4.80;99.90
41928;DHT22;27616;51.420;6.788;2022-12-07T02:04:57;4.80;99.90
41928;DHT22;27616;51.420;6.788;2022-12-07T02:07:25;4.80;99.90
41928;DHT22;27616;51.420;6.788;2022-12-07T02:09:52;4.80;99.90
41928;DHT22;27616;51.420;6.788;2022-12-07T02:12:18;4.70;99.90
41928;DHT22;27616;51.420;6.788;2022-12-07T02:14:45;4.70;99.90
41928;DHT22;27616;51.420;6.788;2022-12-07T02:17:32;4.60;99.90
41928;DHT22;27616;51.420;6.788;2022-12-07T02:20:17;4.60;99.90
41928;DHT22;27616;51.420;6.788;2022-12-07T02:23:00;4.50;99.90
41928;DHT22;27616;51.420;6.788;2022-12-07T02:26:04;4.50;99.90
41928;DHT22;27616;51.420;6.788;2022-12-07T02:31:21;4.40;99.90
41928;DHT22;27616;51.420;6.788;2022-12-07T02:33:59;4.40;99.90
41928;DHT22;27616;51.420;6.788;2022-12-07T02:36:31;4.40;99.90
41928;DHT22;27616;51.420;6.788;2022-12-07T02:39:12;4.40;99.90
41928;DHT22;27616;51.420;6.788;2022-12-07T02:41:44;4.40;99.90
41928;DHT22;27616;51.420;6.788;2022-12-07T02:44:15;4.40;99.90
41928;DHT22;27616;51.420;6.788;2022-12-07T02:46:49;4.40;99.90
41928;DHT22;27616;51.420;6.788;2022-12-07T02:49:16;4.50;99.90
41928;DHT22;27616;51.420;6.788;2022-12-07T02:51:43;4.50;99.90
41928;DHT22;27616;51.420;6.788;2022-12-07T02:54:13;4.50;99.90
41928;DHT22;27616;51.420;6.788;2022-12-07T03:02:17;4.40;99.90
41928;DHT22;27616;51.420;6.788;2022-12-07T03:16:20;4.20;99.90
41928;DHT22;27616;51.420;6.788;2022-12-07T03:21:27;4.20;99.90
41928;DHT22;27616;51.420;6.788;2022-12-07T03:23:59;4.20;99.90
41928;DHT22;27616;51.420;6.788;2022-12-07T03:26:32;4.20;99.90
41928;DHT22;27616;51.420;6.788;2022-12-07T03:29:04;4.10;99.90
41928;DHT22;27616;51.420;6.788;2022-12-07T03:31:33;4.10;99.90
41928;DHT22;27616;51.420;6.788;2022-12-07T03:34:06;4.10;99.90
41928;DHT22;27616;51.420;6.788;2022-12-07T03:36:43;4.00;99.90
41928;DHT22;27616;51.420;6.788;2022-12-07T03:39:24;3.90;99.90
41928;DHT22;27616;51.420;6.788;2022-12-07T03:41:52;3.90;99.90
41928;DHT22;27616;51.420;6.788;2022-12-07T03:44:19;3.90;99.90
41928;DHT22;27616;51.420;6.788;2022-12-07T03:47:08;3.90;99.90
41928;DHT22;27616;51.420;6.788;2022-12-07T03:49:55;3.80;99.90
41928;DHT22;27616;51.420;6.788;2022-12-07T03:52:33;3.80;99.90
41928;DHT22;27616;51.420;6.788;2022-12-07T03:57:43;3.80;99.90
41928;DHT22;27616;51.420;6.788;2022-12-07T04:00:11;3.90;99.90
41928;DHT22;27616;51.420;6.788;2022-12-07T04:02:41;3.90;99.90
41928;DHT22;27616;51.420;6.788;2022-12-07T04:05:08;3.90;99.90
41928;DHT22;27616;51.420;6.788;2022-12-07T04:07:34;3.80;99.90
41928;DHT22;27616;51.420;6.788;2022-12-07T04:09:59;3.90;99.90
41928;DHT22;27616;51.420;6.788;2022-12-07T04:12:25;3.90;99.90
41928;DHT22;27616;51.420;6.788;2022-12-07T04:14:51;3.90;99.90
41928;DHT22;27616;51.420;6.788;2022-12-07T04:17:17;3.90;99.90
41928;DHT22;27616;51.420;6.788;2022-12-07T04:19:42;3.90;99.90
41928;DHT22;27616;51.420;6.788;2022-12-07T04:22:08;4.00;99.90
41928;DHT22;27616;51.420;6.788;2022-12-07T04:24:34;4.00;99.90
41928;DHT22;27616;51.420;6.788;2022-12-07T04:27:00;3.90;99.90
41928;DHT22;27616;51.420;6.788;2022-12-07T04:29:26;3.90;99.90
41928;DHT22;27616;51.420;6.788;2022-12-07T04:31:52;3.90;99.90
41928;DHT22;27616;51.420;6.788;2022-12-07T04:34:18;3.80;99.90
41928;DHT22;27616;51.420;6.788;2022-12-07T04:36:44;3.70;99.90
41928;DHT22;27616;51.420;6.788;2022-12-07T04:39:23;3.70;99.90
41928;DHT22;27616;51.420;6.788;2022-12-07T04:41:49;3.70;99.90
41928;DHT22;27616;51.420;6.788;2022-12-07T04:44:15;3.70;99.90
41928;DHT22;27616;51.420;6.788;2022-12-07T04:46:42;3.60;99.90
41928;DHT22;27616;51.420;6.788;2022-12-07T04:49:08;3.60;99.90
41928;DHT22;27616;51.420;6.788;2022-12-07T04:51:34;3.60;99.90
41928;DHT22;27616;51.420;6.788;2022-12-07T04:53:59;3.50;99.90
41928;DHT22;27616;51.420;6.788;2022-12-07T04:56:25;3.50;99.90
41928;DHT22;27616;51.420;6.788;2022-12-07T04:58:52;3.50;99.90
41928;DHT22;27616;51.420;6.788;2022-12-07T05:01:20;3.50;99.90
41928;DHT22;27616;51.420;6.788;2022-12-07T05:03:45;3.50;99.90
41928;DHT22;27616;51.420;6.788;2022-12-07T05:06:12;3.50;99.90
41928;DHT22;27616;51.420;6.788;2022-12-07T05:08:37;3.50;99.90
41928;DHT22;27616;51.420;6.788;2022-12-07T05:11:04;3.60;99.90
41928;DHT22;27616;51.420;6.788;2022-12-07T05:13:30;3.60;99.90
41928;DHT22;27616;51.420;6.788;2022-12-07T05:15:56;3.60;99.90
41928;DHT22;27616;51.420;6.788;2022-12-07T05:18:21;3.60;99.90
41928;DHT22;27616;51.420;6.788;2022-12-07T05:20:47;3.60;99.90
41928;DHT22;27616;51.420;6.788;2022-12-07T05:23:13;3.70;99.90
41928;DHT22;27616;51.420;6.788;2022-12-07T05:25:39;3.60;99.90
41928;DHT22;27616;51.420;6.788;2022-12-07T05:28:05;3.60;99.90
41928;DHT22;27616;51.420;6.788;2022-12-07T05:30:31;3.60;99.90
41928;DHT22;27616;51.420;6.788;2022-12-07T05:32:58;3.70;99.90
41928;DHT22;27616;51.420;6.788;2022-12-07T05:35:24;3.70;99.90
41928;DHT22;27616;51.420;6.788;2022-12-07T05:37:50;3.70;99.90
41928;DHT22;27616;51.420;6.788;2022-12-07T05:40:16;3.70;99.90
41928;DHT22;27616;51.420;6.788;2022-12-07T05:42:42;3.80;99.90
41928;DHT22;27616;51.420;6.788;2022-12-07T05:45:09;3.80;99.90
41928;DHT22;27616;51.420;6.788;2022-12-07T05:47:35;3.80;99.90
41928;DHT22;27616;51.420;6.788;2022-12-07T05:50:02;3.80;99.90
41928;DHT22;27616;51.420;6.788;2022-12-07T05:52:28;3.80;99.90
41928;DHT22;27616;51.420;6.788;2022-12-07T05:54:53;3.80;99.90
41928;DHT22;27616;51.420;6.788;2022-12-07T05:57:19;3.80;99.90
41928;DHT22;27616;51.420;6.788;2022-12-07T05:59:45;3.80;99.90
41928;DHT22;27616;51.420;6.788;2022-12-07T06:02:13;3.80;99.90
41928;DHT22;27616;51.420;6.788;2022-12-07T06:04:44;3.80;99.90
41928;DHT22;27616;51.420;6.788;2022-12-07T06:07:12;3.90;99.90
41928;DHT22;27616;51.420;6.788;2022-12-07T06:09:38;3.90;99.90
41928;DHT22;27616;51.420;6.788;2022-12-07T06:12:05;3.90;99.90
41928;DHT22;27616;51.420;6.788;2022-12-07T06:14:50;3.90;99.90
41928;DHT22;27616;51.420;6.788;2022-12-07T06:17:16;3.90;99.90
41928;DHT22;27616;51.420;6.788;2022-12-07T06:19:42;3.90;99.90
41928;DHT22;27616;51.420;6.788;2022-12-07T06:22:09;3.90;99.90
41928;DHT22;27616;51.420;6.788;2022-12-07T06:24:37;3.80;99.90
41928;DHT22;27616;51.420;6.788;2022-12-07T06:27:03;3.80;99.90
41928;DHT22;27616;51.420;6.788;2022-12-07T06:29:28;3.70;99.90
41928;DHT22;27616;51.420;6.788;2022-12-07T06:31:54;3.70;99.90
41928;DHT22;27616;51.420;6.788;2022-12-07T06:34:21;3.80;99.90
41928;DHT22;27616;51.420;6.788;2022-12-07T06:36:48;3.80;99.90
41928;DHT22;27616;51.420;6.788;2022-12-07T06:39:18;3.70;99.90
41928;DHT22;27616;51.420;6.788;2022-12-07T06:41:44;3.80;99.90
41928;DHT22;27616;51.420;6.788;2022-12-07T06:44:10;3.80;99.90
41928;DHT22;27616;51.420;6.788;2022-12-07T06:46:35;3.80;99.90
41928;DHT22;27616;51.420;6.788;2022-12-07T06:49:02;3.90;99.90
41928;DHT22;27616;51.420;6.788;2022-12-07T06:51:27;3.80;99.90
41928;DHT22;27616;51.420;6.788;2022-12-07T06:53:53;3.80;99.90
41928;DHT22;27616;51.420;6.788;2022-12-07T06:56:19;3.80;99.90
41928;DHT22;27616;51.420;6.788;2022-12-07T06:58:44;3.70;99.90
41928;DHT22;27616;51.420;6.788;2022-12-07T07:01:12;3.70;99.90
41928;DHT22;27616;51.420;6.788;2022-12-07T07:03:38;3.70;99.90
41928;DHT22;27616;51.420;6.788;2022-12-07T07:06:05;3.70;99.90
41928;DHT22;27616;51.420;6.788;2022-12-07T07:08:31;3.70;99.90
41928;DHT22;27616;51.420;6.788;2022-12-07T07:10:57;3.80;99.90
41928;DHT22;27616;51.420;6.788;2022-12-07T07:13:23;3.80;99.90
41928;DHT22;27616;51.420;6.788;2022-12-07T07:15:48;3.80;99.90
41928;DHT22;27616;51.420;6.788;2022-12-07T07:18:14;3.80;99.90
41928;DHT22;27616;51.420;6.788;2022-12-07T07:20:40;3.70;99.90
41928;DHT22;27616;51.420;6.788;2022-12-07T07:23:06;3.70;99.90
41928;DHT22;27616;51.420;6.788;2022-12-07T07:25:32;3.70;99.90
41928;DHT22;27616;51.420;6.788;2022-12-07T07:27:58;3.70;99.90
41928;DHT22;27616;51.420;6.788;2022-12-07T07:30:24;3.70;99.90
41928;DHT22;27616;51.420;6.788;2022-12-07T07:32:49;3.80;99.90
41928;DHT22;27616;51.420;6.788;2022-12-07T07:35:15;3.70;99.90
41928;DHT22;27616;51.420;6.788;2022-12-07T07:37:41;3.70;99.90
41928;DHT22;27616;51.420;6.788;2022-12-07T07:40:08;3.70;99.90
41928;DHT22;27616;51.420;6.788;2022-12-07T07:42:34;3.70;99.90
41928;DHT22;27616;51.420;6.788;2022-12-07T07:45:00;3.70;99.90
41928;DHT22;27616;51.420;6.788;2022-12-07T07:47:25;3.70;99.90
41928;DHT22;27616;51.420;6.788;2022-12-07T07:49:51;3.70;99.90
41928;DHT22;27616;51.420;6.788;2022-12-07T07:52:17;3.70;99.90
41928;DHT22;27616;51.420;6.788;2022-12-07T07:54:42;3.70;99.90
41928;DHT22;27616;51.420;6.788;2022-12-07T07:57:08;3.70;99.90
41928;DHT22;27616;51.420;6.788;2022-12-07T07:59:34;3.70;99.90
41928;DHT22;27616;51.420;6.788;2022-12-07T08:01:59;3.70;99.90
41928;DHT22;27616;51.420;6.788;2022-12-07T08:04:25;3.70;99.90
41928;DHT22;27616;51.420;6.788;2022-12-07T08:06:51;3.80;99.90
41928;DHT22;27616;51.420;6.788;2022-12-07T08:09:17;3.80;99.90
41928;DHT22;27616;51.420;6.788;2022-12-07T08:11:42;3.90;99.90
41928;DHT22;27616;51.420;6.788;2022-12-07T08:14:10;3.90;99.90
41928;DHT22;27616;51.420;6.788;2022-12-07T08:16:37;3.90;99.90
41928;DHT22;27616;51.420;6.788;2022-12-07T08:19:04;4.00;99.90
41928;DHT22;27616;51.420;6.788;2022-12-07T08:21:30;4.10;99.90
41928;DHT22;27616;51.420;6.788;2022-12-07T08:23:57;4.00;99.90
41928;DHT22;27616;51.420;6.788;2022-12-07T08:26:22;4.10;99.90
41928;DHT22;27616;51.420;6.788;2022-12-07T08:28:48;4.00;99.90
41928;DHT22;27616;51.420;6.788;2022-12-07T08:31:17;4.00;99.90
41928;DHT22;27616;51.420;6.788;2022-12-07T08:33:45;4.00;99.90
41928;DHT22;27616;51.420;6.788;2022-12-07T08:36:12;3.90;99.90
41928;DHT22;27616;51.420;6.788;2022-12-07T08:38:39;3.90;99.90
41928;DHT22;27616;51.420;6.788;2022-12-07T08:41:05;3.90;99.90
41928;DHT22;27616;51.420;6.788;2022-12-07T08:43:31;3.80;99.90
41928;DHT22;27616;51.420;6.788;2022-12-07T08:46:03;3.90;99.90
41928;DHT22;27616;51.420;6.788;2022-12-07T08:48:30;3.90;99.90
41928;DHT22;27616;51.420;6.788;2022-12-07T08:50:57;3.80;99.90
41928;DHT22;27616;51.420;6.788;2022-12-07T08:53:23;3.90;99.90
41928;DHT22;27616;51.420;6.788;2022-12-07T08:55:49;4.00;99.90
41928;DHT22;27616;51.420;6.788;2022-12-07T08:58:15;4.00;99.90
41928;DHT22;27616;51.420;6.788;2022-12-07T09:00:41;4.10;99.90
41928;DHT22;27616;51.420;6.788;2022-12-07T09:03:07;4.20;99.90
41928;DHT22;27616;51.420;6.788;2022-12-07T09:05:33;4.20;99.90
41928;DHT22;27616;51.420;6.788;2022-12-07T09:08:01;4.10;99.90
41928;DHT22;27616;51.420;6.788;2022-12-07T09:10:28;4.10;99.90
41928;DHT22;27616;51.420;6.788;2022-12-07T09:12:54;4.20;99.90
41928;DHT22;27616;51.420;6.788;2022-12-07T09:15:19;4.10;99.90
41928;DHT22;27616;51.420;6.788;2022-12-07T09:17:45;4.20;99.90
41928;DHT22;27616;51.420;6.788;2022-12-07T09:20:11;4.30;99.90
41928;DHT22;27616;51.420;6.788;2022-12-07T09:22:37;4.50;99.90
41928;DHT22;27616;51.420;6.788;2022-12-07T09:25:03;4.60;99.90
41928;DHT22;27616;51.420;6.788;2022-12-07T09:27:30;4.60;99.90
41928;DHT22;27616;51.420;6.788;2022-12-07T09:29:56;4.70;99.90
41928;DHT22;27616;51.420;6.788;2022-12-07T09:32:22;4.80;99.90
41928;DHT22;27616;51.420;6.788;2022-12-07T09:34:48;4.80;99.90
41928;DHT22;27616;51.420;6.788;2022-12-07T09:37:14;5.00;99.90
41928;DHT22;27616;51.420;6.788;2022-12-07T09:39:40;5.00;99.90
41928;DHT22;27616;51.420;6.788;2022-12-07T09:42:07;5.00;99.90
41928;DHT22;27616;51.420;6.788;2022-12-07T09:44:34;5.00;99.90
41928;DHT22;27616;51.420;6.788;2022-12-07T09:47:00;5.00;99.90
41928;DHT22;27616;51.420;6.788;2022-12-07T09:49:29;5.10;99.90
41928;DHT22;27616;51.420;6.788;2022-12-07T09:52:03;5.10;99.90
41928;DHT22;27616;51.420;6.788;2022-12-07T09:54:30;5.40;99.90
41928;DHT22;27616;51.420;6.788;2022-12-07T09:56:56;5.70;99.90
41928;DHT22;27616;51.420;6.788;2022-12-07T09:59:22;6.30;99.90
41928;DHT22;27616;51.420;6.788;2022-12-07T10:01:49;7.50;99.90
41928;DHT22;27616;51.420;6.788;2022-12-07T10:04:19;8.90;99.90
41928;DHT22;27616;51.420;6.788;2022-12-07T10:06:46;10.20;99.90
41928;DHT22;27616;51.420;6.788;2022-12-07T10:09:16;11.40;99.90
41928;DHT22;27616;51.420;6.788;2022-12-07T10:11:58;12.70;99.90
41928;DHT22;27616;51.420;6.788;2022-12-07T10:14:27;14.10;99.90
41928;DHT22;27616;51.420;6.788;2022-12-07T10:16:53;15.00;98.70
41928;DHT22;27616;51.420;6.788;2022-12-07T10:19:31;16.10;94.80
41928;DHT22;27616;51.420;6.788;2022-12-07T10:22:12;16.60;92.00
41928;DHT22;27616;51.420;6.788;2022-12-07T10:24:40;17.40;89.70
41928;DHT22;27616;51.420;6.788;2022-12-07T10:27:34;17.60;84.50
41928;DHT22;27616;51.420;6.788;2022-12-07T10:30:01;17.30;79.40
41928;DHT22;27616;51.420;6.788;2022-12-07T10:32:34;15.90;87.00
41928;DHT22;27616;51.420;6.788;2022-12-07T10:35:23;16.20;88.60
41928;DHT22;27616;51.420;6.788;2022-12-07T10:37:50;15.00;91.50
41928;DHT22;27616;51.420;6.788;2022-12-07T10:43:18;12.00;97.80
41928;DHT22;27616;51.420;6.788;2022-12-07T10:46:09;11.10;99.90
41928;DHT22;27616;51.420;6.788;2022-12-07T10:49:10;10.40;99.90
41928;DHT22;27616;51.420;6.788;2022-12-07T10:51:50;9.50;99.90
41928;DHT22;27616;51.420;6.788;2022-12-07T11:00:24;8.70;99.90
41928;DHT22;27616;51.420;6.788;2022-12-07T11:08:32;7.80;99.90
41928;DHT22;27616;51.420;6.788;2022-12-07T11:11:05;7.60;99.90
41928;DHT22;27616;51.420;6.788;2022-12-07T11:24:27;6.80;99.90
41928;DHT22;27616;51.420;6.788;2022-12-07T11:30:02;6.90;99.90
41928;DHT22;27616;51.420;6.788;2022-12-07T11:35:24;6.80;99.90
41928;DHT22;27616;51.420;6.788;2022-12-07T11:38:00;6.90;99.90
41928;DHT22;27616;51.420;6.788;2022-12-07T11:40:34;6.90;99.90
41928;DHT22;27616;51.420;6.788;2022-12-07T11:43:06;6.90;99.90
41928;DHT22;27616;51.420;6.788;2022-12-07T11:45:37;7.00;99.90
41928;DHT22;27616;51.420;6.788;2022-12-07T11:48:17;7.00;99.90
41928;DHT22;27616;51.420;6.788;2022-12-07T11:50:52;7.10;99.90
41928;DHT22;27616;51.420;6.788;2022-12-07T11:53:51;7.00;99.90
41928;DHT22;27616;51.420;6.788;2022-12-07T11:56:16;7.00;99.90
41928;DHT22;27616;51.420;6.788;2022-12-07T12:01:18;7.00;99.90
41928;DHT22;27616;51.420;6.788;2022-12-07T12:03:50;7.00;99.90
41928;DHT22;27616;51.420;6.788;2022-12-07T12:06:16;7.00;99.90
41928;DHT22;27616;51.420;6.788;2022-12-07T12:14:21;6.80;99.90
41928;DHT22;27616;51.420;6.788;2022-12-07T12:22:36;6.70;99.90
41928;DHT22;27616;51.420;6.788;2022-12-07T12:25:05;6.70;99.90
41928;DHT22;27616;51.420;6.788;2022-12-07T12:27:36;6.70;99.90
41928;DHT22;27616;51.420;6.788;2022-12-07T12:30:05;6.70;99.90
41928;DHT22;27616;51.420;6.788;2022-12-07T12:32:39;6.80;99.90
41928;DHT22;27616;51.420;6.788;2022-12-07T12:35:32;6.80;99.90
41928;DHT22;27616;51.420;6.788;2022-12-07T12:38:31;6.80;99.90
41928;DHT22;27616;51.420;6.788;2022-12-07T12:41:00;6.60;99.90
41928;DHT22;27616;51.420;6.788;2022-12-07T12:43:47;6.60;99.90
41928;DHT22;27616;51.420;6.788;2022-12-07T12:54:33;6.70;99.90
41928;DHT22;27616;51.420;6.788;2022-12-07T13:02:32;6.70;99.90
41928;DHT22;27616;51.420;6.788;2022-12-07T13:05:18;6.60;99.90
41928;DHT22;27616;51.420;6.788;2022-12-07T13:15:52;6.40;99.90
41928;DHT22;27616;51.420;6.788;2022-12-07T13:26:08;6.40;99.90
41928;DHT22;27616;51.420;6.788;2022-12-07T13:28:39;6.40;99.90
41928;DHT22;27616;51.420;6.788;2022-12-07T13:33:55;6.50;99.90
41928;DHT22;27616;51.420;6.788;2022-12-07T13:36:39;6.50;99.90
41928;DHT22;27616;51.420;6.788;2022-12-07T13:39:21;6.60;99.90
41928;DHT22;27616;51.420;6.788;2022-12-07T13:41:54;6.70;99.90
41928;DHT22;27616;51.420;6.788;2022-12-07T13:44:24;6.70;99.90
41928;DHT22;27616;51.420;6.788;2022-12-07T13:49:29;6.60;99.90
41928;DHT22;27616;51.420;6.788;2022-12-07T13:52:13;6.60;99.90
41928;DHT22;27616;51.420;6.788;2022-12-07T13:54:54;6.50;99.90
41928;DHT22;27616;51.420;6.788;2022-12-07T13:57:21;6.40;99.90
41928;DHT22;27616;51.420;6.788;2022-12-07T13:59:47;6.40;99.90
41928;DHT22;27616;51.420;6.788;2022-12-07T14:02:26;6.30;99.90
41928;DHT22;27616;51.420;6.788;2022-12-07T14:05:05;6.30;99.90
41928;DHT22;27616;51.420;6.788;2022-12-07T14:07:33;6.20;99.90
41928;DHT22;27616;51.420;6.788;2022-12-07T14:10:06;6.20;99.90
41928;DHT22;27616;51.420;6.788;2022-12-07T14:12:35;6.30;99.90
41928;DHT22;27616;51.420;6.788;2022-12-07T14:15:03;6.20;99.90
41928;DHT22;27616;51.420;6.788;2022-12-07T14:17:29;6.10;99.90
41928;DHT22;27616;51.420;6.788;2022-12-07T14:19:57;6.10;99.90
41928;DHT22;27616;51.420;6.788;2022-12-07T14:22:38;6.20;99.90
41928;DHT22;27616;51.420;6.788;2022-12-07T14:27:39;6.10;99.90
41928;DHT22;27616;51.420;6.788;2022-12-07T14:30:14;6.10;99.90
41928;DHT22;27616;51.420;6.788;2022-12-07T14:32:40;6.00;99.90
41928;DHT22;27616;51.420;6.788;2022-12-07T14:35:11;5.90;99.90
41928;DHT22;27616;51.420;6.788;2022-12-07T14:37:38;5.80;99.90
41928;DHT22;27616;51.420;6.788;2022-12-07T14:40:05;5.80;99.90
41928;DHT22;27616;51.420;6.788;2022-12-07T14:42:33;5.80;99.90
41928;DHT22;27616;51.420;6.788;2022-12-07T14:44:59;5.80;99.90
41928;DHT22;27616;51.420;6.788;2022-12-07T14:47:26;5.80;99.90
41928;DHT22;27616;51.420;6.788;2022-12-07T14:49:52;5.80;99.90
41928;DHT22;27616;51.420;6.788;2022-12-07T14:52:23;5.80;99.90
41928;DHT22;27616;51.420;6.788;2022-12-07T14:54:50;5.80;99.90
41928;DHT22;27616;51.420;6.788;2022-12-07T14:57:16;5.70;99.90
41928;DHT22;27616;51.420;6.788;2022-12-07T14:59:41;5.60;99.90
41928;DHT22;27616;51.420;6.788;2022-12-07T15:02:10;5.60;99.90
41928;DHT22;27616;51.420;6.788;2022-12-07T15:04:36;5.50;99.90
41928;DHT22;27616;51.420;6.788;2022-12-07T15:07:05;5.50;99.90
41928;DHT22;27616;51.420;6.788;2022-12-07T15:09:31;5.40;99.90
41928;DHT22;27616;51.420;6.788;2022-12-07T15:11:57;5.40;99.90
41928;DHT22;27616;51.420;6.788;2022-12-07T15:14:23;5.30;99.90
41928;DHT22;27616;51.420;6.788;2022-12-07T15:16:48;5.20;99.90
41928;DHT22;27616;51.420;6.788;2022-12-07T15:19:22;5.20;99.90
41928;DHT22;27616;51.420;6.788;2022-12-07T15:21:49;5.10;99.90
41928;DHT22;27616;51.420;6.788;2022-12-07T15:24:15;5.00;99.90
41928;DHT22;27616;51.420;6.788;2022-12-07T15:26:41;5.00;99.90
41928;DHT22;27616;51.420;6.788;2022-12-07T15:29:08;5.00;99.90
41928;DHT22;27616;51.420;6.788;2022-12-07T15:31:34;4.90;99.90
41928;DHT22;27616;51.420;6.788;2022-12-07T15:34:01;4.90;99.90
41928;DHT22;27616;51.420;6.788;2022-12-07T15:36:28;4.90;99.90
41928;DHT22;27616;51.420;6.788;2022-12-07T15:38:55;4.90;99.90
41928;DHT22;27616;51.420;6.788;2022-12-07T15:41:21;4.90;99.90
41928;DHT22;27616;51.420;6.788;2022-12-07T15:43:47;4.80;99.90
41928;DHT22;27616;51.420;6.788;2022-12-07T15:46:34;4.80;99.90
41928;DHT22;27616;51.420;6.788;2022-12-07T15:49:00;4.80;99.90
41928;DHT22;27616;51.420;6.788;2022-12-07T15:51:26;4.70;99.90
41928;DHT22;27616;51.420;6.788;2022-12-07T15:53:52;4.70;99.90
41928;DHT22;27616;51.420;6.788;2022-12-07T15:56:18;4.70;99.90
41928;DHT22;27616;51.420;6.788;2022-12-07T15:58:44;4.70;99.90
41928;DHT22;27616;51.420;6.788;2022-12-07T16:01:14;4.70;99.90
41928;DHT22;27616;51.420;6.788;2022-12-07T16:03:40;4.70;99.90
41928;DHT22;27616;51.420;6.788;2022-12-07T16:06:06;4.80;99.90
41928;DHT22;27616;51.420;6.788;2022-12-07T16:08:32;4.80;99.90
41928;DHT22;27616;51.420;6.788;2022-12-07T16:10:58;4.90;99.90
41928;DHT22;27616;51.420;6.788;2022-12-07T16:13:24;4.80;99.90
41928;DHT22;27616;51.420;6.788;2022-12-07T16:15:50;4.80;99.90
41928;DHT22;27616;51.420;6.788;2022-12-07T16:18:16;4.90;99.90
41928;DHT22;27616;51.420;6.788;2022-12-07T16:20:41;4.90;99.90
41928;DHT22;27616;51.420;6.788;2022-12-07T16:23:07;4.90;99.90
41928;DHT22;27616;51.420;6.788;2022-12-07T16:25:33;4.90;99.90
41928;DHT22;27616;51.420;6.788;2022-12-07T16:27:59;4.90;99.90
41928;DHT22;27616;51.420;6.788;2022-12-07T16:30:25;5.00;99.90
41928;DHT22;27616;51.420;6.788;2022-12-07T16:32:51;5.00;99.90
41928;DHT22;27616;51.420;6.788;2022-12-07T16:35:17;5.00;99.90
41928;DHT22;27616;51.420;6.788;2022-12-07T16:37:42;5.10;99.90
41928;DHT22;27616;51.420;6.788;2022-12-07T16:40:09;5.10;99.90
41928;DHT22;27616;51.420;6.788;2022-12-07T16:42:35;5.10;99.90
41928;DHT22;27616;51.420;6.788;2022-12-07T16:45:02;5.10;99.90
41928;DHT22;27616;51.420;6.788;2022-12-07T16:47:27;5.10;99.90
41928;DHT22;27616;51.420;6.788;2022-12-07T16:49:53;5.10;99.90
41928;DHT22;27616;51.420;6.788;2022-12-07T16:52:20;5.10;99.90
41928;DHT22;27616;51.420;6.788;2022-12-07T16:54:49;5.10;99.90
41928;DHT22;27616;51.420;6.788;2022-12-07T16:57:16;5.10;99.90
41928;DHT22;27616;51.420;6.788;2022-12-07T16:59:42;5.10;99.90
41928;DHT22;27616;51.420;6.788;2022-12-07T17:02:11;5.10;99.90
41928;DHT22;27616;51.420;6.788;2022-12-07T17:04:37;5.10;99.90
41928;DHT22;27616;51.420;6.788;2022-12-07T17:07:05;5.10;99.90
41928;DHT22;27616;51.420;6.788;2022-12-07T17:09:31;5.10;99.90
41928;DHT22;27616;51.420;6.788;2022-12-07T17:11:57;5.20;99.90
41928;DHT22;27616;51.420;6.788;2022-12-07T17:14:23;5.10;99.90
41928;DHT22;27616;51.420;6.788;2022-12-07T17:17:07;5.10;99.90
41928;DHT22;27616;51.420;6.788;2022-12-07T17:19:33;5.20;99.90
41928;DHT22;27616;51.420;6.788;2022-12-07T17:21:59;5.20;99.90
41928;DHT22;27616;51.420;6.788;2022-12-07T17:24:24;5.10;99.90
41928;DHT22;27616;51.420;6.788;2022-12-07T17:26:50;5.00;99.90
41928;DHT22;27616;51.420;6.788;2022-12-07T17:29:17;5.00;99.90
41928;DHT22;27616;51.420;6.788;2022-12-07T17:31:44;5.00;99.90
41928;DHT22;27616;51.420;6.788;2022-12-07T17:34:12;5.10;99.90
41928;DHT22;27616;51.420;6.788;2022-12-07T17:36:38;5.10;99.90
41928;DHT22;27616;51.420;6.788;2022-12-07T17:39:11;5.00;99.90
41928;DHT22;27616;51.420;6.788;2022-12-07T17:41:37;5.00;99.90
41928;DHT22;27616;51.420;6.788;2022-12-07T17:44:22;5.00;99.90
41928;DHT22;27616;51.420;6.788;2022-12-07T17:46:51;5.00;99.90
41928;DHT22;27616;51.420;6.788;2022-12-07T17:49:22;5.00;99.90
41928;DHT22;27616;51.420;6.788;2022-12-07T17:51:48;5.00;99.90
41928;DHT22;27616;51.420;6.788;2022-12-07T17:54:33;4.90;99.90